Cranbrook Airport
CYXC : rendu visible

Aérodrome :











RETROUVEZ-NOUS SUR...

 
LOGIN :

S'inscrire | Disclaimer

   EN    FR    IT 

 









Légende :    VFR   VFR Marginal   IFR   IFR Intensif   IFR Très Intensif
Visi : 
Plafond : 
>= 8 km
>= 3000ft
5 à 8 km
1000 à 3000 ft
1500m à 5 km
500 à 1000 ft
800 à 1500m
200 à 500 ft
< 800m
< 200 ft
Symboles :   Orages  Brouillard  Fortes neiges  Fortes précipitations  Vent > 20 kt






- Altitude de l'aérodrome : 3082 ft
- Code IATA : YXC


CYXC - Cranbrook

DERNIER METAR :
  • 181600Z 00000KT 8SM -SN OVC055 M14/M16 A3031 RMK SC8 SLP340

METARs EXPIRÉS :
  • 181500Z 21002KT 4SM -SN OVC070 M14/M16 A3031 RMK AC8 SLP339
  • 181400Z 21003KT 15SM -SN OVC071 M14/M16 A3030 RMK AC8 SLP333

TAF AMD TAF CYXC
Valide du 18 à 15h jusqu'au 19 à 01h UTC


181543Z 1815/1901 VRB03KT P6SM SCT020 BKN060 OVC200
TEMPO 1815/1818 3SM -SN BKN020
FM181800 12005KT P6SM -SN SCT020 OVC040
TEMPO 1818/1901 2SM -SN OVC015 RMK NXT FCST BY 181900Z



MET'MAP, la Météo Aéronautique d'un coup d'oeil ! - Copyright ORBIFLY Décembre 2007 - Disclaimer

ORBIFLY MET'MAP TEAM :

Programmation & Développement : Alexandra Zaïnal
Sur une idée originale de : Baudouin d'Aumeries
Assistance à la programmation : Marc-Olivier Méhu
Soutien technique & logistique : Manuel Goepfert

Contact : metmap@orbifly.com




SOURCES & CREDITS :

   NOAA       Earth
Advisory